Bradley, Illinois
Current Conditions -  °F | °C
As of 4:55 PM on Wednesday 26 Nov 2014 (Local Time) from KJOT Reporting Station
Overcast Overcast  
Wind Chill: 26°   Ceiling: 1900
Heat Index: 26°   Visibility: 10mi
Dew Point: 19°   Wind: 3mph
Humidity: 76%   Direction: 60°ENE
Pressure: 30.12"   Gusts: NA
Location:  41.14°N, 87.86°W
Report Text: KJOT 262255Z AUTO 06003KT 10SM OVC019 M03/M07 A3012 RMK AO2 T10351072
Loading
Personal Weather Stations






























Interactive Weather Map New forecast layout! Learn more

10-Day Weather Forecast

Advertisements
Track Severe Weather on mobile